KCHK/CHK METAR and TAF weather

Enter ICAO airport designator
Station Type Date Time Source
KCHK METAR 2019/08/19 12:15 UTC NOAA

KCHK 191215Z AUTO 11004KT 10SM CLR 25/21 A2992 RMK AO2 T02540209


Station Type Date Time Source
KCHK Decoded METAR 2019/08/19 12:15 UTC NOAA

Station name not available
Aug 19, 2019 - 08:15 AM EDT / 2019.08.19 1215 UTC
Wind: from the ESE (110 degrees) at 5 MPH (4 KT):0
Visibility: 10 mile(s):0
Sky conditions: clear
Temperature: 77.7 F (25.4 C)
Dew Point: 69.6 F (20.9 C)
Relative Humidity: 76%
Pressure (altimeter): 29.92 in. Hg (1013 hPa)
ob: KCHK 191215Z AUTO 11004KT 10SM CLR 25/21 A2992 RMK AO2 T02540209
cycle: 12

Station Type Date Time Source
KCHK TAF UTC NOAA

Error!

Example: see airport list